sensor_id;sensor_type;location;lat;lon;timestamp;temperature;humidity
43087;DHT22;28708;52.224;6.924;2022-12-19T00:00:32;1.00;99.90
43087;DHT22;28708;52.224;6.924;2022-12-19T00:02:57;1.00;99.90
43087;DHT22;28708;52.224;6.924;2022-12-19T00:05:23;0.90;99.90
43087;DHT22;28708;52.224;6.924;2022-12-19T00:07:48;1.00;99.90
43087;DHT22;28708;52.224;6.924;2022-12-19T00:10:14;1.00;99.90
43087;DHT22;28708;52.224;6.924;2022-12-19T00:12:40;1.00;99.90
43087;DHT22;28708;52.224;6.924;2022-12-19T00:15:06;1.00;99.90
43087;DHT22;28708;52.224;6.924;2022-12-19T00:17:32;1.10;99.90
43087;DHT22;28708;52.224;6.924;2022-12-19T00:19:58;1.00;99.90
43087;DHT22;28708;52.224;6.924;2022-12-19T00:22:24;1.10;99.90
43087;DHT22;28708;52.224;6.924;2022-12-19T00:24:49;1.10;99.90
43087;DHT22;28708;52.224;6.924;2022-12-19T00:27:15;1.10;99.90
43087;DHT22;28708;52.224;6.924;2022-12-19T00:29:41;1.10;99.90
43087;DHT22;28708;52.224;6.924;2022-12-19T00:32:06;1.20;99.90
43087;DHT22;28708;52.224;6.924;2022-12-19T00:34:34;1.20;99.90
43087;DHT22;28708;52.224;6.924;2022-12-19T00:37:00;1.10;99.90
43087;DHT22;28708;52.224;6.924;2022-12-19T00:39:27;1.20;99.90
43087;DHT22;28708;52.224;6.924;2022-12-19T00:41:53;1.20;99.90
43087;DHT22;28708;52.224;6.924;2022-12-19T00:44:20;1.20;99.90
43087;DHT22;28708;52.224;6.924;2022-12-19T00:46:46;1.20;99.90
43087;DHT22;28708;52.224;6.924;2022-12-19T00:49:12;1.20;99.90
43087;DHT22;28708;52.224;6.924;2022-12-19T00:51:38;1.30;99.90
43087;DHT22;28708;52.224;6.924;2022-12-19T00:54:08;1.30;99.90
43087;DHT22;28708;52.224;6.924;2022-12-19T00:56:35;1.40;99.90
43087;DHT22;28708;52.224;6.924;2022-12-19T00:59:00;1.50;99.90
43087;DHT22;28708;52.224;6.924;2022-12-19T01:01:32;1.50;99.90
43087;DHT22;28708;52.224;6.924;2022-12-19T01:03:59;1.50;99.90
43087;DHT22;28708;52.224;6.924;2022-12-19T01:06:26;1.50;99.90
43087;DHT22;28708;52.224;6.924;2022-12-19T01:08:52;1.50;99.90
43087;DHT22;28708;52.224;6.924;2022-12-19T01:11:20;1.50;99.90
43087;DHT22;28708;52.224;6.924;2022-12-19T01:14:06;1.50;99.90
43087;DHT22;28708;52.224;6.924;2022-12-19T01:16:32;1.60;99.90
43087;DHT22;28708;52.224;6.924;2022-12-19T01:18:58;1.60;99.90
43087;DHT22;28708;52.224;6.924;2022-12-19T01:21:24;1.60;99.90
43087;DHT22;28708;52.224;6.924;2022-12-19T01:23:50;1.60;99.90
43087;DHT22;28708;52.224;6.924;2022-12-19T01:26:17;1.60;99.90
43087;DHT22;28708;52.224;6.924;2022-12-19T01:28:43;1.70;99.90
43087;DHT22;28708;52.224;6.924;2022-12-19T01:31:08;1.70;99.90
43087;DHT22;28708;52.224;6.924;2022-12-19T01:33:34;1.70;99.90
43087;DHT22;28708;52.224;6.924;2022-12-19T01:35:59;1.80;99.90
43087;DHT22;28708;52.224;6.924;2022-12-19T01:38:35;1.80;99.90
43087;DHT22;28708;52.224;6.924;2022-12-19T01:41:01;1.80;99.90
43087;DHT22;28708;52.224;6.924;2022-12-19T01:43:51;1.90;99.90
43087;DHT22;28708;52.224;6.924;2022-12-19T01:46:34;1.90;99.90
43087;DHT22;28708;52.224;6.924;2022-12-19T01:49:02;1.80;99.90
43087;DHT22;28708;52.224;6.924;2022-12-19T01:51:39;1.80;99.90
43087;DHT22;28708;52.224;6.924;2022-12-19T01:54:13;1.90;99.90
43087;DHT22;28708;52.224;6.924;2022-12-19T01:56:43;1.90;99.90
43087;DHT22;28708;52.224;6.924;2022-12-19T01:59:16;1.90;99.90
43087;DHT22;28708;52.224;6.924;2022-12-19T02:01:44;1.90;99.90
43087;DHT22;28708;52.224;6.924;2022-12-19T02:04:10;1.90;99.90
43087;DHT22;28708;52.224;6.924;2022-12-19T02:06:39;1.80;99.90
43087;DHT22;28708;52.224;6.924;2022-12-19T02:09:07;1.80;99.90
43087;DHT22;28708;52.224;6.924;2022-12-19T02:11:34;2.00;99.90
43087;DHT22;28708;52.224;6.924;2022-12-19T02:13:59;2.00;99.90
43087;DHT22;28708;52.224;6.924;2022-12-19T02:19:18;1.90;99.90
43087;DHT22;28708;52.224;6.924;2022-12-19T02:22:02;1.90;99.90
43087;DHT22;28708;52.224;6.924;2022-12-19T02:27:39;2.00;99.90
43087;DHT22;28708;52.224;6.924;2022-12-19T02:33:15;2.00;99.90
43087;DHT22;28708;52.224;6.924;2022-12-19T02:35:52;2.00;99.90
43087;DHT22;28708;52.224;6.924;2022-12-19T02:41:07;2.00;99.90
43087;DHT22;28708;52.224;6.924;2022-12-19T02:43:39;2.10;99.90
43087;DHT22;28708;52.224;6.924;2022-12-19T02:46:09;2.00;99.90
43087;DHT22;28708;52.224;6.924;2022-12-19T02:48:37;2.10;99.90
43087;DHT22;28708;52.224;6.924;2022-12-19T02:51:04;2.10;99.90
43087;DHT22;28708;52.224;6.924;2022-12-19T02:53:31;2.10;99.90
43087;DHT22;28708;52.224;6.924;2022-12-19T03:04:58;2.20;99.90
43087;DHT22;28708;52.224;6.924;2022-12-19T03:12:39;2.30;99.90
43087;DHT22;28708;52.224;6.924;2022-12-19T03:15:09;2.30;99.90
43087;DHT22;28708;52.224;6.924;2022-12-19T03:17:36;2.30;99.90
43087;DHT22;28708;52.224;6.924;2022-12-19T03:23:11;2.40;99.90
43087;DHT22;28708;52.224;6.924;2022-12-19T03:25:37;2.40;99.90
43087;DHT22;28708;52.224;6.924;2022-12-19T03:28:12;2.40;99.90
43087;DHT22;28708;52.224;6.924;2022-12-19T03:30:41;2.40;99.90
43087;DHT22;28708;52.224;6.924;2022-12-19T03:33:10;2.50;99.90
43087;DHT22;28708;52.224;6.924;2022-12-19T03:35:38;2.50;99.90
43087;DHT22;28708;52.224;6.924;2022-12-19T03:38:06;2.50;99.90
43087;DHT22;28708;52.224;6.924;2022-12-19T03:40:39;2.50;99.90
43087;DHT22;28708;52.224;6.924;2022-12-19T03:43:06;2.50;99.90
43087;DHT22;28708;52.224;6.924;2022-12-19T03:45:44;2.60;99.90
43087;DHT22;28708;52.224;6.924;2022-12-19T03:48:23;2.70;99.90
43087;DHT22;28708;52.224;6.924;2022-12-19T03:51:02;2.80;99.90
43087;DHT22;28708;52.224;6.924;2022-12-19T03:58:56;2.90;99.90
43087;DHT22;28708;52.224;6.924;2022-12-19T04:01:25;2.90;99.90
43087;DHT22;28708;52.224;6.924;2022-12-19T04:03:53;2.90;99.90
43087;DHT22;28708;52.224;6.924;2022-12-19T04:06:19;3.00;99.90
43087;DHT22;28708;52.224;6.924;2022-12-19T04:08:45;3.00;99.90
43087;DHT22;28708;52.224;6.924;2022-12-19T04:11:16;2.90;99.90
43087;DHT22;28708;52.224;6.924;2022-12-19T04:13:54;3.10;99.90
43087;DHT22;28708;52.224;6.924;2022-12-19T04:16:29;3.20;99.90
43087;DHT22;28708;52.224;6.924;2022-12-19T04:19:09;3.30;99.90
43087;DHT22;28708;52.224;6.924;2022-12-19T04:21:41;3.30;99.90
43087;DHT22;28708;52.224;6.924;2022-12-19T04:24:15;3.30;99.90
43087;DHT22;28708;52.224;6.924;2022-12-19T04:26:43;3.40;99.90
43087;DHT22;28708;52.224;6.924;2022-12-19T04:29:12;3.40;99.90
43087;DHT22;28708;52.224;6.924;2022-12-19T04:31:38;3.40;99.90
43087;DHT22;28708;52.224;6.924;2022-12-19T04:34:04;3.50;99.90
43087;DHT22;28708;52.224;6.924;2022-12-19T04:36:30;3.60;99.90
43087;DHT22;28708;52.224;6.924;2022-12-19T04:38:56;3.60;99.90
43087;DHT22;28708;52.224;6.924;2022-12-19T04:41:22;3.60;99.90
43087;DHT22;28708;52.224;6.924;2022-12-19T04:43:47;3.70;99.90
43087;DHT22;28708;52.224;6.924;2022-12-19T04:46:13;3.70;99.90
43087;DHT22;28708;52.224;6.924;2022-12-19T04:48:39;3.80;99.90
43087;DHT22;28708;52.224;6.924;2022-12-19T04:51:05;3.80;99.90
43087;DHT22;28708;52.224;6.924;2022-12-19T04:53:31;3.80;99.90
43087;DHT22;28708;52.224;6.924;2022-12-19T04:56:01;3.70;99.90
43087;DHT22;28708;52.224;6.924;2022-12-19T04:58:26;3.80;99.90
43087;DHT22;28708;52.224;6.924;2022-12-19T05:00:52;3.80;99.90
43087;DHT22;28708;52.224;6.924;2022-12-19T05:03:17;3.80;99.90
43087;DHT22;28708;52.224;6.924;2022-12-19T05:05:43;3.80;99.90
43087;DHT22;28708;52.224;6.924;2022-12-19T05:08:09;3.80;99.90
43087;DHT22;28708;52.224;6.924;2022-12-19T05:10:35;3.80;99.90
43087;DHT22;28708;52.224;6.924;2022-12-19T05:13:01;3.90;99.90
43087;DHT22;28708;52.224;6.924;2022-12-19T05:15:27;4.00;99.90
43087;DHT22;28708;52.224;6.924;2022-12-19T05:17:52;4.00;99.90
43087;DHT22;28708;52.224;6.924;2022-12-19T05:20:18;3.90;99.90
43087;DHT22;28708;52.224;6.924;2022-12-19T05:22:44;3.90;99.90
43087;DHT22;28708;52.224;6.924;2022-12-19T05:25:09;3.90;99.90
43087;DHT22;28708;52.224;6.924;2022-12-19T05:27:35;3.90;99.90
43087;DHT22;28708;52.224;6.924;2022-12-19T05:30:00;3.80;99.90
43087;DHT22;28708;52.224;6.924;2022-12-19T05:32:29;3.90;99.90
43087;DHT22;28708;52.224;6.924;2022-12-19T05:34:56;4.00;99.90
43087;DHT22;28708;52.224;6.924;2022-12-19T05:37:21;4.00;99.90
43087;DHT22;28708;52.224;6.924;2022-12-19T05:39:47;4.00;99.90
43087;DHT22;28708;52.224;6.924;2022-12-19T05:42:13;4.00;99.90
43087;DHT22;28708;52.224;6.924;2022-12-19T05:44:38;4.00;99.90
43087;DHT22;28708;52.224;6.924;2022-12-19T05:47:04;4.00;99.90
43087;DHT22;28708;52.224;6.924;2022-12-19T05:49:30;4.00;99.90
43087;DHT22;28708;52.224;6.924;2022-12-19T05:51:55;4.00;99.90
43087;DHT22;28708;52.224;6.924;2022-12-19T05:54:21;4.10;99.90
43087;DHT22;28708;52.224;6.924;2022-12-19T05:56:47;4.10;99.90
43087;DHT22;28708;52.224;6.924;2022-12-19T05:59:12;4.10;99.90
43087;DHT22;28708;52.224;6.924;2022-12-19T06:01:38;4.20;99.90
43087;DHT22;28708;52.224;6.924;2022-12-19T06:04:04;4.20;99.90
43087;DHT22;28708;52.224;6.924;2022-12-19T06:06:29;4.20;99.90
43087;DHT22;28708;52.224;6.924;2022-12-19T06:08:56;4.30;99.90
43087;DHT22;28708;52.224;6.924;2022-12-19T06:11:23;4.30;99.90
43087;DHT22;28708;52.224;6.924;2022-12-19T06:13:49;4.30;99.90
43087;DHT22;28708;52.224;6.924;2022-12-19T06:16:17;4.30;99.90
43087;DHT22;28708;52.224;6.924;2022-12-19T06:18:44;4.40;99.90
43087;DHT22;28708;52.224;6.924;2022-12-19T06:21:12;4.30;99.90
43087;DHT22;28708;52.224;6.924;2022-12-19T06:23:39;4.40;99.90
43087;DHT22;28708;52.224;6.924;2022-12-19T06:26:06;4.50;99.90
43087;DHT22;28708;52.224;6.924;2022-12-19T06:28:33;4.60;99.90
43087;DHT22;28708;52.224;6.924;2022-12-19T06:31:00;4.50;99.90
43087;DHT22;28708;52.224;6.924;2022-12-19T06:33:27;4.50;99.90
43087;DHT22;28708;52.224;6.924;2022-12-19T06:36:04;4.50;99.90
43087;DHT22;28708;52.224;6.924;2022-12-19T06:38:31;4.60;99.90
43087;DHT22;28708;52.224;6.924;2022-12-19T06:40:57;4.60;99.90
43087;DHT22;28708;52.224;6.924;2022-12-19T06:43:41;4.80;99.90
43087;DHT22;28708;52.224;6.924;2022-12-19T06:46:07;4.70;99.90
43087;DHT22;28708;52.224;6.924;2022-12-19T06:48:33;4.80;99.90
43087;DHT22;28708;52.224;6.924;2022-12-19T06:50:59;4.80;99.90
43087;DHT22;28708;52.224;6.924;2022-12-19T06:53:24;4.90;99.90
43087;DHT22;28708;52.224;6.924;2022-12-19T06:55:53;5.00;99.90
43087;DHT22;28708;52.224;6.924;2022-12-19T06:58:20;5.00;99.90
43087;DHT22;28708;52.224;6.924;2022-12-19T07:00:46;5.10;99.90
43087;DHT22;28708;52.224;6.924;2022-12-19T07:03:14;5.00;99.90
43087;DHT22;28708;52.224;6.924;2022-12-19T07:05:40;5.20;99.90
43087;DHT22;28708;52.224;6.924;2022-12-19T07:08:07;5.30;99.90
43087;DHT22;28708;52.224;6.924;2022-12-19T07:10:34;5.30;99.90
43087;DHT22;28708;52.224;6.924;2022-12-19T07:12:59;5.40;99.90
43087;DHT22;28708;52.224;6.924;2022-12-19T07:15:26;5.50;99.90
43087;DHT22;28708;52.224;6.924;2022-12-19T07:17:52;5.40;99.90
43087;DHT22;28708;52.224;6.924;2022-12-19T07:20:18;5.40;99.90
43087;DHT22;28708;52.224;6.924;2022-12-19T07:22:46;5.40;99.90
43087;DHT22;28708;52.224;6.924;2022-12-19T07:25:12;5.30;99.90
43087;DHT22;28708;52.224;6.924;2022-12-19T07:27:38;5.50;99.90
43087;DHT22;28708;52.224;6.924;2022-12-19T07:30:05;5.50;99.90
43087;DHT22;28708;52.224;6.924;2022-12-19T07:32:32;5.60;99.90
43087;DHT22;28708;52.224;6.924;2022-12-19T07:34:58;5.70;99.90
43087;DHT22;28708;52.224;6.924;2022-12-19T07:37:23;5.70;99.90
43087;DHT22;28708;52.224;6.924;2022-12-19T07:39:49;5.70;99.90
43087;DHT22;28708;52.224;6.924;2022-12-19T07:42:15;5.80;99.90
43087;DHT22;28708;52.224;6.924;2022-12-19T07:44:40;5.70;99.90
43087;DHT22;28708;52.224;6.924;2022-12-19T07:47:09;5.70;99.90
43087;DHT22;28708;52.224;6.924;2022-12-19T07:49:35;5.80;99.90
43087;DHT22;28708;52.224;6.924;2022-12-19T07:52:01;5.80;99.90
43087;DHT22;28708;52.224;6.924;2022-12-19T07:54:26;5.80;99.90
43087;DHT22;28708;52.224;6.924;2022-12-19T07:56:52;5.90;99.90
43087;DHT22;28708;52.224;6.924;2022-12-19T07:59:18;5.80;99.90
43087;DHT22;28708;52.224;6.924;2022-12-19T08:01:43;6.00;99.90
43087;DHT22;28708;52.224;6.924;2022-12-19T08:04:09;6.00;99.90
43087;DHT22;28708;52.224;6.924;2022-12-19T08:06:35;6.00;99.90
43087;DHT22;28708;52.224;6.924;2022-12-19T08:09:00;6.00;99.90
43087;DHT22;28708;52.224;6.924;2022-12-19T08:11:26;6.00;99.90
43087;DHT22;28708;52.224;6.924;2022-12-19T08:13:54;6.00;99.90
43087;DHT22;28708;52.224;6.924;2022-12-19T08:16:21;6.00;99.90
43087;DHT22;28708;52.224;6.924;2022-12-19T08:18:46;6.00;99.90
43087;DHT22;28708;52.224;6.924;2022-12-19T08:21:12;6.00;99.90
43087;DHT22;28708;52.224;6.924;2022-12-19T08:23:38;6.20;99.90
43087;DHT22;28708;52.224;6.924;2022-12-19T08:26:07;6.20;99.90
43087;DHT22;28708;52.224;6.924;2022-12-19T08:28:34;6.30;99.90
43087;DHT22;28708;52.224;6.924;2022-12-19T08:31:12;6.30;99.90
43087;DHT22;28708;52.224;6.924;2022-12-19T08:33:39;6.30;99.90
43087;DHT22;28708;52.224;6.924;2022-12-19T08:36:07;6.30;99.90
43087;DHT22;28708;52.224;6.924;2022-12-19T08:38:34;6.30;99.90
43087;DHT22;28708;52.224;6.924;2022-12-19T08:41:00;6.40;99.90
43087;DHT22;28708;52.224;6.924;2022-12-19T08:43:26;6.40;99.90
43087;DHT22;28708;52.224;6.924;2022-12-19T08:45:52;6.40;99.90
43087;DHT22;28708;52.224;6.924;2022-12-19T08:48:19;6.40;99.90
43087;DHT22;28708;52.224;6.924;2022-12-19T08:50:52;6.40;99.90
43087;DHT22;28708;52.224;6.924;2022-12-19T08:53:19;6.40;99.90
43087;DHT22;28708;52.224;6.924;2022-12-19T08:55:45;6.40;99.90
43087;DHT22;28708;52.224;6.924;2022-12-19T08:58:11;6.50;99.90
43087;DHT22;28708;52.224;6.924;2022-12-19T09:00:38;6.50;99.90
43087;DHT22;28708;52.224;6.924;2022-12-19T09:03:03;6.50;99.90
43087;DHT22;28708;52.224;6.924;2022-12-19T09:05:29;6.50;99.90
43087;DHT22;28708;52.224;6.924;2022-12-19T09:07:55;6.60;99.90
43087;DHT22;28708;52.224;6.924;2022-12-19T09:10:21;6.70;99.90
43087;DHT22;28708;52.224;6.924;2022-12-19T09:12:46;6.70;99.90
43087;DHT22;28708;52.224;6.924;2022-12-19T09:15:12;6.70;99.90
43087;DHT22;28708;52.224;6.924;2022-12-19T09:17:37;6.70;99.90
43087;DHT22;28708;52.224;6.924;2022-12-19T09:20:03;6.70;99.90
43087;DHT22;28708;52.224;6.924;2022-12-19T09:22:29;6.80;99.90
43087;DHT22;28708;52.224;6.924;2022-12-19T09:25:00;6.80;99.90
43087;DHT22;28708;52.224;6.924;2022-12-19T09:27:26;6.80;99.90
43087;DHT22;28708;52.224;6.924;2022-12-19T09:29:51;6.80;99.90
43087;DHT22;28708;52.224;6.924;2022-12-19T09:32:17;6.80;99.90
43087;DHT22;28708;52.224;6.924;2022-12-19T09:34:43;6.90;99.90
43087;DHT22;28708;52.224;6.924;2022-12-19T09:37:10;6.90;99.90
43087;DHT22;28708;52.224;6.924;2022-12-19T09:39:36;7.00;99.90
43087;DHT22;28708;52.224;6.924;2022-12-19T09:42:27;6.90;99.90
43087;DHT22;28708;52.224;6.924;2022-12-19T09:45:03;6.90;99.90
43087;DHT22;28708;52.224;6.924;2022-12-19T09:47:38;7.00;99.90
43087;DHT22;28708;52.224;6.924;2022-12-19T09:53:05;7.00;99.90
43087;DHT22;28708;52.224;6.924;2022-12-19T09:55:34;7.00;99.90
43087;DHT22;28708;52.224;6.924;2022-12-19T10:00:47;7.10;99.90
43087;DHT22;28708;52.224;6.924;2022-12-19T10:03:20;7.00;99.90
43087;DHT22;28708;52.224;6.924;2022-12-19T10:05:54;7.00;99.90
43087;DHT22;28708;52.224;6.924;2022-12-19T10:08:27;7.00;99.90
43087;DHT22;28708;52.224;6.924;2022-12-19T10:11:17;7.00;99.90
43087;DHT22;28708;52.224;6.924;2022-12-19T10:16:28;6.90;99.90
43087;DHT22;28708;52.224;6.924;2022-12-19T10:18:59;7.00;99.90
43087;DHT22;28708;52.224;6.924;2022-12-19T10:21:43;7.00;99.90
43087;DHT22;28708;52.224;6.924;2022-12-19T10:34:49;7.10;99.90
43087;DHT22;28708;52.224;6.924;2022-12-19T10:37:20;7.10;99.90
43087;DHT22;28708;52.224;6.924;2022-12-19T10:40:09;7.10;99.90
43087;DHT22;28708;52.224;6.924;2022-12-19T10:45:37;7.20;99.90
43087;DHT22;28708;52.224;6.924;2022-12-19T10:48:11;7.30;99.90
43087;DHT22;28708;52.224;6.924;2022-12-19T10:50:38;7.20;99.90
43087;DHT22;28708;52.224;6.924;2022-12-19T10:55:50;7.30;99.90
43087;DHT22;28708;52.224;6.924;2022-12-19T10:58:25;7.30;99.90
43087;DHT22;28708;52.224;6.924;2022-12-19T11:03:36;7.30;99.90
43087;DHT22;28708;52.224;6.924;2022-12-19T11:06:03;7.30;99.90
43087;DHT22;28708;52.224;6.924;2022-12-19T11:08:35;7.30;99.90
43087;DHT22;28708;52.224;6.924;2022-12-19T11:16:01;7.30;99.90
43087;DHT22;28708;52.224;6.924;2022-12-19T11:18:40;7.30;99.90
43087;DHT22;28708;52.224;6.924;2022-12-19T11:29:20;7.40;99.90
43087;DHT22;28708;52.224;6.924;2022-12-19T11:31:55;7.40;99.90
43087;DHT22;28708;52.224;6.924;2022-12-19T11:34:23;7.40;99.90
43087;DHT22;28708;52.224;6.924;2022-12-19T11:36:58;7.40;99.90
43087;DHT22;28708;52.224;6.924;2022-12-19T11:47:34;7.60;99.90
43087;DHT22;28708;52.224;6.924;2022-12-19T11:50:16;7.60;99.90
43087;DHT22;28708;52.224;6.924;2022-12-19T11:55:27;7.90;99.90
43087;DHT22;28708;52.224;6.924;2022-12-19T11:57:54;8.00;99.90
43087;DHT22;28708;52.224;6.924;2022-12-19T12:00:23;8.00;99.90
43087;DHT22;28708;52.224;6.924;2022-12-19T12:05:43;7.90;99.90
43087;DHT22;28708;52.224;6.924;2022-12-19T12:11:39;8.00;99.90
43087;DHT22;28708;52.224;6.924;2022-12-19T12:14:59;8.00;99.90
43087;DHT22;28708;52.224;6.924;2022-12-19T12:17:47;8.10;99.90
43087;DHT22;28708;52.224;6.924;2022-12-19T12:23:57;8.10;99.90
43087;DHT22;28708;52.224;6.924;2022-12-19T12:26:35;8.10;99.90
43087;DHT22;28708;52.224;6.924;2022-12-19T12:32:14;8.00;99.90
43087;DHT22;28708;52.224;6.924;2022-12-19T12:43:59;8.10;99.90
43087;DHT22;28708;52.224;6.924;2022-12-19T12:46:34;8.10;99.90
43087;DHT22;28708;52.224;6.924;2022-12-19T12:51:39;8.30;99.90
43087;DHT22;28708;52.224;6.924;2022-12-19T12:54:10;8.20;99.90
43087;DHT22;28708;52.224;6.924;2022-12-19T12:56:37;8.20;99.90
43087;DHT22;28708;52.224;6.924;2022-12-19T12:59:22;8.30;99.90
43087;DHT22;28708;52.224;6.924;2022-12-19T13:01:57;8.30;99.90
43087;DHT22;28708;52.224;6.924;2022-12-19T13:04:29;8.40;99.90
43087;DHT22;28708;52.224;6.924;2022-12-19T13:09:51;8.30;99.90
43087;DHT22;28708;52.224;6.924;2022-12-19T13:12:24;8.40;99.90
43087;DHT22;28708;52.224;6.924;2022-12-19T13:15:30;8.50;99.90
43087;DHT22;28708;52.224;6.924;2022-12-19T13:18:29;8.60;99.90
43087;DHT22;28708;52.224;6.924;2022-12-19T13:20:56;8.60;99.90
43087;DHT22;28708;52.224;6.924;2022-12-19T13:26:00;8.60;99.90
43087;DHT22;28708;52.224;6.924;2022-12-19T13:34:08;8.70;99.90
43087;DHT22;28708;52.224;6.924;2022-12-19T13:42:22;8.60;99.90
43087;DHT22;28708;52.224;6.924;2022-12-19T13:45:19;8.60;99.90
43087;DHT22;28708;52.224;6.924;2022-12-19T13:47:49;8.60;99.90
43087;DHT22;28708;52.224;6.924;2022-12-19T13:50:45;8.70;99.90
43087;DHT22;28708;52.224;6.924;2022-12-19T13:53:19;8.70;99.90
43087;DHT22;28708;52.224;6.924;2022-12-19T13:55:46;8.70;99.90
43087;DHT22;28708;52.224;6.924;2022-12-19T14:00:47;8.90;99.90
43087;DHT22;28708;52.224;6.924;2022-12-19T14:03:18;8.80;99.90
43087;DHT22;28708;52.224;6.924;2022-12-19T14:05:45;8.80;99.90
43087;DHT22;28708;52.224;6.924;2022-12-19T14:08:17;8.80;99.90
43087;DHT22;28708;52.224;6.924;2022-12-19T14:10:45;8.80;99.90
43087;DHT22;28708;52.224;6.924;2022-12-19T14:13:16;8.80;99.90
43087;DHT22;28708;52.224;6.924;2022-12-19T14:16:01;8.90;99.90
43087;DHT22;28708;52.224;6.924;2022-12-19T14:18:31;8.90;99.90
43087;DHT22;28708;52.224;6.924;2022-12-19T14:21:23;8.90;99.90
43087;DHT22;28708;52.224;6.924;2022-12-19T14:26:59;9.00;99.90
43087;DHT22;28708;52.224;6.924;2022-12-19T14:29:34;9.00;99.90
43087;DHT22;28708;52.224;6.924;2022-12-19T14:32:01;8.90;99.90
43087;DHT22;28708;52.224;6.924;2022-12-19T14:34:30;9.00;99.90
43087;DHT22;28708;52.224;6.924;2022-12-19T14:36:57;8.90;99.90
43087;DHT22;28708;52.224;6.924;2022-12-19T14:39:29;8.80;99.90
43087;DHT22;28708;52.224;6.924;2022-12-19T14:42:02;8.90;99.90
43087;DHT22;28708;52.224;6.924;2022-12-19T14:44:52;8.80;99.90
43087;DHT22;28708;52.224;6.924;2022-12-19T14:47:24;8.80;99.90
43087;DHT22;28708;52.224;6.924;2022-12-19T14:49:51;8.70;99.90
43087;DHT22;28708;52.224;6.924;2022-12-19T14:57:41;8.70;99.90
43087;DHT22;28708;52.224;6.924;2022-12-19T15:00:25;8.80;99.90
43087;DHT22;28708;52.224;6.924;2022-12-19T15:02:51;8.70;99.90
43087;DHT22;28708;52.224;6.924;2022-12-19T15:05:18;8.70;99.90
43087;DHT22;28708;52.224;6.924;2022-12-19T15:07:47;8.70;99.90
43087;DHT22;28708;52.224;6.924;2022-12-19T15:15:55;8.70;99.90
43087;DHT22;28708;52.224;6.924;2022-12-19T15:21:10;8.70;99.90
43087;DHT22;28708;52.224;6.924;2022-12-19T15:23:36;8.70;99.90
43087;DHT22;28708;52.224;6.924;2022-12-19T15:26:04;8.70;99.90
43087;DHT22;28708;52.224;6.924;2022-12-19T15:28:40;8.70;99.90
43087;DHT22;28708;52.224;6.924;2022-12-19T15:33:49;8.80;99.90
43087;DHT22;28708;52.224;6.924;2022-12-19T15:36:14;8.80;99.90
43087;DHT22;28708;52.224;6.924;2022-12-19T15:38:40;8.80;99.90
43087;DHT22;28708;52.224;6.924;2022-12-19T15:41:14;8.80;99.90
43087;DHT22;28708;52.224;6.924;2022-12-19T15:43:41;8.80;99.90
43087;DHT22;28708;52.224;6.924;2022-12-19T15:46:08;8.80;99.90
43087;DHT22;28708;52.224;6.924;2022-12-19T15:48:39;8.90;99.90
43087;DHT22;28708;52.224;6.924;2022-12-19T15:51:11;8.80;99.90
43087;DHT22;28708;52.224;6.924;2022-12-19T15:53:38;8.70;99.90
43087;DHT22;28708;52.224;6.924;2022-12-19T15:56:04;8.70;99.90
43087;DHT22;28708;52.224;6.924;2022-12-19T15:58:31;8.60;99.90
43087;DHT22;28708;52.224;6.924;2022-12-19T16:01:02;8.60;99.90
43087;DHT22;28708;52.224;6.924;2022-12-19T16:03:29;8.70;99.90
43087;DHT22;28708;52.224;6.924;2022-12-19T16:05:55;8.80;99.90
43087;DHT22;28708;52.224;6.924;2022-12-19T16:08:22;8.80;99.90
43087;DHT22;28708;52.224;6.924;2022-12-19T16:10:51;8.80;99.90
43087;DHT22;28708;52.224;6.924;2022-12-19T16:13:28;8.80;99.90
43087;DHT22;28708;52.224;6.924;2022-12-19T16:15:54;8.80;99.90
43087;DHT22;28708;52.224;6.924;2022-12-19T16:18:20;8.80;99.90
43087;DHT22;28708;52.224;6.924;2022-12-19T16:20:47;8.80;99.90
43087;DHT22;28708;52.224;6.924;2022-12-19T16:23:13;8.80;99.90
43087;DHT22;28708;52.224;6.924;2022-12-19T16:25:47;8.90;99.90
43087;DHT22;28708;52.224;6.924;2022-12-19T16:28:22;8.80;99.90
43087;DHT22;28708;52.224;6.924;2022-12-19T16:30:50;8.70;99.90
43087;DHT22;28708;52.224;6.924;2022-12-19T16:33:21;8.70;99.90
43087;DHT22;28708;52.224;6.924;2022-12-19T16:35:48;8.70;99.90
43087;DHT22;28708;52.224;6.924;2022-12-19T16:38:14;8.70;99.90
43087;DHT22;28708;52.224;6.924;2022-12-19T16:40:40;8.70;99.90
43087;DHT22;28708;52.224;6.924;2022-12-19T16:43:13;8.70;99.90
43087;DHT22;28708;52.224;6.924;2022-12-19T16:45:40;8.80;99.90
43087;DHT22;28708;52.224;6.924;2022-12-19T16:48:28;8.80;99.90
43087;DHT22;28708;52.224;6.924;2022-12-19T16:50:56;8.70;99.90
43087;DHT22;28708;52.224;6.924;2022-12-19T16:53:22;8.60;99.90
43087;DHT22;28708;52.224;6.924;2022-12-19T16:55:48;8.60;99.90
43087;DHT22;28708;52.224;6.924;2022-12-19T16:58:24;8.60;99.90
43087;DHT22;28708;52.224;6.924;2022-12-19T17:00:52;8.70;99.90
43087;DHT22;28708;52.224;6.924;2022-12-19T17:03:32;8.70;99.90
43087;DHT22;28708;52.224;6.924;2022-12-19T17:06:01;8.70;99.90
43087;DHT22;28708;52.224;6.924;2022-12-19T17:08:27;8.70;99.90
43087;DHT22;28708;52.224;6.924;2022-12-19T17:10:53;8.70;99.90
43087;DHT22;28708;52.224;6.924;2022-12-19T17:13:20;8.80;99.90
43087;DHT22;28708;52.224;6.924;2022-12-19T17:15:46;8.80;99.90
43087;DHT22;28708;52.224;6.924;2022-12-19T17:18:19;8.80;99.90
43087;DHT22;28708;52.224;6.924;2022-12-19T17:20:47;8.80;99.90
43087;DHT22;28708;52.224;6.924;2022-12-19T17:23:18;8.70;99.90
43087;DHT22;28708;52.224;6.924;2022-12-19T17:25:44;8.70;99.90
43087;DHT22;28708;52.224;6.924;2022-12-19T17:28:11;8.80;99.90
43087;DHT22;28708;52.224;6.924;2022-12-19T17:30:38;8.70;99.90
43087;DHT22;28708;52.224;6.924;2022-12-19T17:33:04;8.80;99.90
43087;DHT22;28708;52.224;6.924;2022-12-19T17:35:33;8.80;99.90
43087;DHT22;28708;52.224;6.924;2022-12-19T17:37:59;8.80;99.90
43087;DHT22;28708;52.224;6.924;2022-12-19T17:40:31;8.80;99.90
43087;DHT22;28708;52.224;6.924;2022-12-19T17:42:57;8.80;99.90
43087;DHT22;28708;52.224;6.924;2022-12-19T17:45:33;8.80;99.90
43087;DHT22;28708;52.224;6.924;2022-12-19T17:48:01;8.80;99.90
43087;DHT22;28708;52.224;6.924;2022-12-19T17:50:33;8.90;99.90
43087;DHT22;28708;52.224;6.924;2022-12-19T17:52:59;8.80;99.90
43087;DHT22;28708;52.224;6.924;2022-12-19T17:55:27;8.80;99.90
43087;DHT22;28708;52.224;6.924;2022-12-19T17:57:54;8.80;99.90
43087;DHT22;28708;52.224;6.924;2022-12-19T18:00:22;8.90;99.90
43087;DHT22;28708;52.224;6.924;2022-12-19T18:02:50;9.00;99.90
43087;DHT22;28708;52.224;6.924;2022-12-19T18:05:19;9.10;99.90
43087;DHT22;28708;52.224;6.924;2022-12-19T18:07:47;9.10;99.90
43087;DHT22;28708;52.224;6.924;2022-12-19T18:10:16;9.10;99.90
43087;DHT22;28708;52.224;6.924;2022-12-19T18:12:42;9.20;99.90
43087;DHT22;28708;52.224;6.924;2022-12-19T18:15:08;9.20;99.90
43087;DHT22;28708;52.224;6.924;2022-12-19T18:17:35;9.10;99.90
43087;DHT22;28708;52.224;6.924;2022-12-19T18:20:02;9.20;99.90
43087;DHT22;28708;52.224;6.924;2022-12-19T18:22:30;9.30;99.90
43087;DHT22;28708;52.224;6.924;2022-12-19T18:24:56;9.30;99.90
43087;DHT22;28708;52.224;6.924;2022-12-19T18:27:22;9.20;99.90